Time;durP1;ratioP1;P1;durP2;ratioP2;P2;SDS_P1;SDS_P2;PMS_P1;PMS_P2;Temp;Humidity;BMP_temperature;BMP_pressure;BME280_temperature;BME280_humidity;BME280_pressure;Samples;Min_cycle;Max_cycle;Signal;HPM_P1;HPM_P2
2022/03/23 00:02:26;;;;;;;83.47;53.60;;;6.40;99.90;;;;;;4975642;28;20080;-91
2022/03/23 00:04:55;;;;;;;74.80;50.15;;;6.90;99.90;;;;;;4977022;28;20100;-92
2022/03/23 00:07:29;;;;;;;72.00;48.10;;;7.30;99.90;;;;;;4976453;28;20111;-91
2022/03/23 00:09:55;;;;;;;77.35;49.90;;;6.40;99.90;;;;;;4976037;28;20085;-92
2022/03/23 00:12:23;;;;;;;67.90;45.03;;;7.50;99.90;;;;;;4976083;28;20077;-92
2022/03/23 00:15:02;;;;;;;68.68;46.17;;;6.00;99.90;;;;;;4976628;28;20057;-92
2022/03/23 00:17:27;;;;;;;71.57;44.63;;;6.30;99.90;;;;;;4975728;28;20497;-91
2022/03/23 00:19:56;;;;;;;64.47;45.30;;;7.00;99.90;;;;;;4977975;28;20049;-91
2022/03/23 00:22:36;;;;;;;65.30;45.90;;;7.20;99.90;;;;;;4977898;28;20493;-91
2022/03/23 00:25:14;;;;;;;72.38;47.15;;;5.80;99.90;;;;;;4975978;28;20038;-91
2022/03/23 00:27:40;;;;;;;68.78;46.28;;;7.10;99.90;;;;;;4975937;28;20512;-91
2022/03/23 00:30:21;;;;;;;68.63;46.53;;;6.10;99.90;;;;;;4975370;28;20042;-92
2022/03/23 00:32:47;;;;;;;69.43;46.67;;;7.00;99.90;;;;;;4976360;28;20034;-95
2022/03/23 00:35:20;;;;;;;74.70;48.13;;;6.70;99.90;;;;;;4976211;28;20050;-91
2022/03/23 00:38:06;;;;;;;70.25;44.47;;;6.00;99.90;;;;;;4979230;28;20046;-91
2022/03/23 00:40:31;;;;;;;78.47;49.42;;;6.20;99.90;;;;;;4979435;28;20069;-90
2022/03/23 00:43:06;;;;;;;75.30;47.85;;;6.80;99.90;;;;;;4979384;28;20042;-91
2022/03/23 00:45:31;;;;;;;73.50;48.83;;;7.00;99.90;;;;;;4979577;28;20089;-90
2022/03/23 00:48:06;;;;;;;70.65;47.00;;;6.20;99.90;;;;;;4980068;28;20139;-89
2022/03/23 00:50:34;;;;;;;71.38;47.70;;;6.40;99.90;;;;;;4979925;28;20076;-90
2022/03/23 00:53:17;;;;;;;72.70;46.10;;;6.00;99.90;;;;;;4979253;28;20038;-91
2022/03/23 00:55:43;;;;;;;;;;;5.70;99.90;;;;;;4979549;28;20120;-91
2022/03/23 00:58:09;;;;;;;83.35;48.67;;;6.70;99.90;;;;;;4978659;28;20013;-89
2022/03/23 01:00:35;;;;;;;64.82;43.13;;;6.50;99.90;;;;;;4979363;28;20148;-89
2022/03/23 01:03:13;;;;;;;73.63;46.60;;;6.60;99.90;;;;;;4978610;28;20557;-89
2022/03/23 01:05:39;;;;;;;67.50;46.92;;;6.90;99.90;;;;;;4978961;28;20128;-91
2022/03/23 01:08:06;;;;;;;72.50;46.22;;;5.80;99.90;;;;;;4963491;28;20080;-91
2022/03/23 01:10:41;;;;;;;66.80;45.95;;;5.90;99.90;;;;;;4979342;28;20093;-91
2022/03/23 01:13:06;;;;;;;69.57;47.25;;;5.70;99.90;;;;;;4978434;28;20046;-90
2022/03/23 01:15:43;;;;;;;;;;;;;;;;;;;;;
2022/03/23 01:18:15;;;;;;;74.88;46.50;;;5.70;99.90;;;;;;4995242;28;20076;-90
2022/03/23 01:20:41;;;;;;;73.32;45.35;;;6.60;99.90;;;;;;4979021;28;20041;-90
2022/03/23 01:23:06;;;;;;;69.93;47.47;;;5.60;99.90;;;;;;4979347;28;20046;-91
2022/03/23 01:25:32;;;;;;;66.97;45.67;;;5.60;99.90;;;;;;4978669;28;20050;-90
2022/03/23 01:28:13;;;;;;;76.85;48.72;;;6.50;99.90;;;;;;4978594;28;20041;-90
2022/03/23 01:30:38;;;;;;;80.40;48.95;;;5.40;99.90;;;;;;4979243;28;20037;-90
2022/03/23 01:33:04;;;;;;;83.85;51.72;;;6.20;99.90;;;;;;4977674;28;20038;-90
2022/03/23 01:35:48;;;;;;;83.70;55.58;;;6.20;99.90;;;;;;4979107;28;20049;-90
2022/03/23 01:38:13;;;;;;;82.18;53.65;;;5.90;99.90;;;;;;4979001;28;20088;-90
2022/03/23 01:40:40;;;;;;;83.50;50.33;;;6.50;99.90;;;;;;4978279;28;20078;-90
2022/03/23 01:43:06;;;;;;;82.80;49.55;;;5.60;99.90;;;;;;4978306;28;20496;-91
2022/03/23 01:45:34;;;;;;;79.10;50.72;;;6.00;99.90;;;;;;4979218;28;20089;-91
2022/03/23 01:47:59;;;;;;;79.43;49.15;;;5.10;99.90;;;;;;4977043;28;20088;-90
2022/03/23 01:50:25;;;;;;;86.32;51.50;;;5.60;99.90;;;;;;4979423;28;20474;-90
2022/03/23 01:52:57;;;;;;;74.15;49.55;;;5.90;99.90;;;;;;4978891;28;20049;-89
2022/03/23 01:55:25;;;;;;;74.68;49.75;;;6.20;99.90;;;;;;4978219;28;20046;-91
2022/03/23 01:57:52;;;;;;;70.53;47.10;;;5.40;99.90;;;;;;4978643;28;20074;-91
2022/03/23 02:00:19;;;;;;;73.80;47.45;;;5.40;99.90;;;;;;4978214;28;20085;-91
2022/03/23 02:02:45;;;;;;;77.53;47.92;;;5.40;99.90;;;;;;4978171;28;20084;-91
2022/03/23 02:05:12;;;;;;;70.82;45.10;;;5.80;99.90;;;;;;4978454;28;20081;-90
2022/03/23 02:07:51;;;;;;;81.38;49.97;;;5.60;99.90;;;;;;4978955;28;20054;-90
2022/03/23 02:10:17;;;;;;;74.55;49.58;;;6.20;99.90;;;;;;4978038;28;20068;-91
2022/03/23 02:12:43;;;;;;;82.75;55.45;;;5.60;99.90;;;;;;4977640;28;20038;-91
2022/03/23 02:15:28;;;;;;;85.85;53.60;;;4.80;99.90;;;;;;4977791;28;20482;-91
2022/03/23 02:17:54;;;;;;;81.35;53.22;;;5.90;99.90;;;;;;4978837;28;20060;-91
2022/03/23 02:20:37;;;;;;;80.05;50.33;;;4.70;99.90;;;;;;4977881;28;20140;-91
2022/03/23 02:23:02;;;;;;;80.60;51.77;;;5.20;99.90;;;;;;4977187;28;20038;-91
2022/03/23 02:25:29;;;;;;;88.78;53.30;;;5.80;99.90;;;;;;4978173;28;20049;-90
2022/03/23 02:27:56;;;;;;;80.50;51.03;;;5.40;99.90;;;;;;4977363;28;20042;-90
2022/03/23 02:30:30;;;;;;;76.25;51.15;;;4.80;99.90;;;;;;4976921;28;20148;-90
2022/03/23 02:33:00;;;;;;;98.15;55.35;;;5.00;99.90;;;;;;4978158;28;20425;-90
2022/03/23 02:35:26;;;;;;;76.80;47.17;;;5.10;99.90;;;;;;4978641;28;20065;-90
2022/03/23 02:37:52;;;;;;;86.05;52.33;;;5.00;99.90;;;;;;4977477;28;20156;-90
2022/03/23 02:40:30;;;;;;;90.32;54.05;;;5.60;99.90;;;;;;4977551;28;20137;-90
2022/03/23 02:42:56;;;;;;;78.43;51.10;;;4.90;99.90;;;;;;4976472;28;20042;-89
2022/03/23 02:45:21;;;;;;;84.60;52.92;;;5.50;99.90;;;;;;4978047;28;20060;-90
2022/03/23 02:47:47;;;;;;;79.97;51.45;;;4.90;99.90;;;;;;4977887;28;20088;-89
2022/03/23 02:50:13;;;;;;;85.43;53.47;;;4.90;99.90;;;;;;4977130;28;20528;-90
2022/03/23 03:01:53;;;;;;;52.78;37.85;;;4.70;99.90;;;;;;4993696;28;20054;-90
2022/03/23 03:04:21;;;;;;;34.70;26.55;;;4.70;99.90;;;;;;4976842;28;20461;-90
2022/03/23 03:06:48;;;;;;;63.60;42.75;;;4.60;99.90;;;;;;4977587;28;20034;-90
2022/03/23 03:09:15;;;;;;;54.92;37.95;;;3.60;99.90;;;;;;4977424;28;20104;-90
2022/03/23 03:11:43;;;;;;;58.00;38.95;;;4.40;99.90;;;;;;4976655;28;20042;-91
2022/03/23 03:14:26;;;;;;;63.03;42.25;;;5.20;99.90;;;;;;4976816;28;20058;-92
2022/03/23 03:16:51;;;;;;;41.00;28.90;;;4.50;99.90;;;;;;4977665;28;20050;-90
2022/03/23 03:19:17;;;;;;;28.02;14.43;;;4.40;99.90;;;;;;4976214;28;20042;-91
2022/03/23 03:21:43;;;;;;;17.45;13.98;;;5.10;99.90;;;;;;4977300;28;20053;-90
2022/03/23 03:24:09;;;;;;;20.35;13.63;;;4.20;99.90;;;;;;4977335;28;20049;-90
2022/03/23 03:26:34;;;;;;;21.95;16.85;;;4.80;99.90;;;;;;4976210;28;20045;-91
2022/03/23 03:29:00;;;;;;;50.42;33.08;;;4.10;99.90;;;;;;4977443;28;20038;-91
2022/03/23 03:31:26;;;;;;;40.45;29.25;;;4.10;99.90;;;;;;4977282;28;20533;-91
2022/03/23 03:33:51;;;;;;;37.35;25.75;;;4.00;99.90;;;;;;4976837;28;20077;-91
2022/03/23 03:36:17;;;;;;;40.05;24.85;;;4.10;99.90;;;;;;4976853;28;20042;-90
2022/03/23 03:38:44;;;;;;;72.18;46.30;;;4.30;99.90;;;;;;4977109;28;20057;-90
2022/03/23 03:41:10;;;;;;;43.92;30.60;;;4.90;99.90;;;;;;4976345;28;20042;-90
2022/03/23 03:43:36;;;;;;;38.95;24.67;;;5.00;99.90;;;;;;4977217;28;20399;-91
2022/03/23 03:46:06;;;;;;;37.25;25.77;;;4.00;99.90;;;;;;4977302;28;20060;-91
2022/03/23 03:48:32;;;;;;;57.72;37.35;;;5.10;99.90;;;;;;4976679;28;20105;-91
2022/03/23 03:51:10;;;;;;;75.75;48.67;;;3.50;99.90;;;;;;4978212;28;20545;-92
2022/03/23 03:53:36;;;;;;;87.82;52.83;;;3.80;99.90;;;;;;4977360;28;20042;-90
2022/03/23 03:56:02;;;;;;;77.25;47.28;;;3.80;99.90;;;;;;4977627;28;20050;-92
2022/03/23 03:58:28;;;;;;;91.20;53.70;;;4.00;99.90;;;;;;4977299;28;20397;-91
2022/03/23 04:00:54;;;;;;;75.05;45.65;;;4.80;99.90;;;;;;4977355;28;20050;-90
2022/03/23 04:03:29;;;;;;;85.30;50.60;;;3.50;99.90;;;;;;4977311;28;20057;-91
2022/03/23 04:05:59;;;;;;;77.70;47.50;;;4.10;99.90;;;;;;4978410;28;20136;-91
2022/03/23 04:08:25;;;;;;;80.43;49.00;;;4.00;99.90;;;;;;4976914;28;20045;-91
2022/03/23 04:10:50;;;;;;;77.10;48.30;;;5.10;99.90;;;;;;4977014;28;20046;-91
2022/03/23 04:13:17;;;;;;;67.32;47.00;;;3.50;99.90;;;;;;4977060;28;20405;-91
2022/03/23 04:15:43;;;;;;;90.85;54.53;;;3.80;99.90;;;;;;4976713;28;20053;-91
2022/03/23 04:18:24;;;;;;;96.55;56.40;;;4.40;99.90;;;;;;4977614;28;20049;-92
2022/03/23 04:20:50;;;;;;;90.50;54.38;;;4.80;99.90;;;;;;4977686;28;20053;-91
2022/03/23 04:23:16;;;;;;;94.63;55.03;;;4.40;99.90;;;;;;4976505;28;20045;-93
2022/03/23 04:25:42;;;;;;;80.63;50.22;;;4.30;99.90;;;;;;4989360;28;20046;-92
2022/03/23 04:28:07;;;;;;;83.28;52.45;;;4.10;99.90;;;;;;4999724;28;20018;-93
2022/03/23 04:30:41;;;;;;;90.60;55.22;;;5.00;99.90;;;;;;4999574;28;20042;-92
2022/03/23 04:33:07;;;;;;;89.80;53.72;;;4.10;99.90;;;;;;4999760;28;20030;-93
2022/03/23 04:35:32;;;;;;;100.40;56.80;;;4.10;99.90;;;;;;4999517;28;20238;-91
2022/03/23 04:37:58;;;;;;;92.70;55.60;;;5.60;99.90;;;;;;5000064;28;20021;-92
2022/03/23 04:40:24;;;;;;;90.03;54.80;;;4.00;99.90;;;;;;4999186;28;20037;-93
2022/03/23 04:43:10;;;;;;;86.38;53.08;;;4.90;99.90;;;;;;4998709;28;20040;-92
2022/03/23 04:45:36;;;;;;;85.68;54.20;;;4.20;99.90;;;;;;4999545;28;20048;-93
2022/03/23 04:48:02;;;;;;;87.97;53.05;;;4.10;99.90;;;;;;4999468;28;20057;-93
2022/03/23 04:50:48;;;;;;;100.07;58.45;;;4.00;99.90;;;;;;4997766;28;20054;-92
2022/03/23 04:53:15;;;;;;;93.00;55.65;;;4.80;99.90;;;;;;4977050;28;20085;-93
2022/03/23 04:55:41;;;;;;;99.15;59.42;;;3.90;99.90;;;;;;4976393;28;20060;-92
2022/03/23 04:58:07;;;;;;;97.07;54.47;;;3.90;99.90;;;;;;4976397;28;20038;-91
2022/03/23 05:00:58;;;;;;;91.47;52.05;;;3.90;99.90;;;;;;4978388;28;20046;-92
2022/03/23 05:03:25;;;;;;;87.20;52.28;;;3.90;99.90;;;;;;4998171;28;20100;-93
2022/03/23 05:05:52;;;;;;;73.32;46.17;;;3.80;99.90;;;;;;4985923;28;20057;-92
2022/03/23 05:08:18;;;;;;;82.53;47.10;;;3.70;99.90;;;;;;4979573;28;20121;-90
2022/03/23 05:10:44;;;;;;;63.65;41.58;;;4.50;99.90;;;;;;4981646;28;20052;-93
2022/03/23 05:13:11;;;;;;;74.45;47.17;;;3.70;99.90;;;;;;4975204;28;20133;-91
2022/03/23 05:15:37;;;;;;;94.70;49.70;;;3.70;99.90;;;;;;4975971;28;20092;-91
2022/03/23 05:18:03;;;;;;;84.70;46.95;;;3.00;99.90;;;;;;4975156;28;20045;-91
2022/03/23 05:20:35;;;;;;;66.80;41.33;;;3.60;99.90;;;;;;4975684;28;20046;-91
2022/03/23 05:23:04;;;;;;;95.78;55.63;;;3.90;99.90;;;;;;4979528;28;20046;-91
2022/03/23 05:25:30;;;;;;;108.35;61.78;;;3.60;99.90;;;;;;4978545;28;20054;-91
2022/03/23 05:27:56;;;;;;;100.90;58.17;;;3.70;99.90;;;;;;4978498;28;20060;-91
2022/03/23 05:30:27;;;;;;;101.35;55.75;;;3.00;99.90;;;;;;4978760;28;20058;-91
2022/03/23 05:32:53;;;;;;;88.47;54.17;;;3.80;99.90;;;;;;4978693;28;20108;-94
2022/03/23 05:35:19;;;;;;;93.40;54.97;;;3.50;99.90;;;;;;4989782;28;20045;-93
2022/03/23 05:37:45;;;;;;;93.05;56.08;;;2.90;99.90;;;;;;4998688;28;20500;-92
2022/03/23 05:40:23;;;;;;;104.22;58.15;;;4.60;99.90;;;;;;4997705;28;20080;-95
2022/03/23 05:42:55;;;;;;;98.35;57.97;;;3.60;99.90;;;;;;4998206;28;20132;-92
2022/03/23 05:45:24;;;;;;;96.22;56.33;;;4.50;99.90;;;;;;4998705;28;20117;-94
2022/03/23 05:47:53;;;;;;;106.30;59.47;;;4.00;99.90;;;;;;4994962;28;20124;-94
2022/03/23 05:50:19;;;;;;;78.07;47.03;;;3.80;99.90;;;;;;4979113;28;20053;-95
2022/03/23 05:52:45;;;;;;;89.47;51.65;;;3.60;99.90;;;;;;4979635;28;20121;-94
2022/03/23 05:55:20;;;;;;;90.70;52.75;;;3.00;99.90;;;;;;4978445;28;20053;-94
2022/03/23 05:57:56;;;;;;;93.72;54.75;;;3.70;99.90;;;;;;4978304;28;20046;-95
2022/03/23 06:00:22;;;;;;;91.18;55.78;;;4.40;99.90;;;;;;4978650;28;20548;-91
2022/03/23 06:02:48;;;;;;;106.40;57.40;;;4.90;99.90;;;;;;4979045;28;20045;-93
2022/03/23 06:05:14;;;;;;;121.93;57.25;;;4.70;99.90;;;;;;4994755;28;20069;-92
2022/03/23 06:07:39;;;;;;;107.03;57.92;;;4.60;99.90;;;;;;4978572;28;20092;-92
2022/03/23 06:10:08;;;;;;;98.68;53.05;;;3.90;99.90;;;;;;4978623;28;20042;-92
2022/03/23 06:12:33;;;;;;;127.13;55.88;;;3.90;99.90;;;;;;4978520;28;20057;-88
2022/03/23 06:14:59;;;;;;;113.70;52.55;;;3.90;99.90;;;;;;4978600;28;20038;-91
2022/03/23 06:17:25;;;;;;;107.43;53.40;;;3.40;99.90;;;;;;4978164;28;20039;-93
2022/03/23 06:19:51;;;;;;;93.03;53.28;;;3.90;99.90;;;;;;4978299;28;20089;-92
2022/03/23 06:22:16;;;;;;;91.05;55.20;;;5.00;99.90;;;;;;4977679;28;20038;-92
2022/03/23 06:24:42;;;;;;;98.25;53.47;;;4.80;99.90;;;;;;4979364;28;20050;-93
2022/03/23 06:27:08;;;;;;;92.53;50.58;;;4.00;99.90;;;;;;4977697;28;20846;-93
2022/03/23 06:29:34;;;;;;;96.35;55.67;;;4.90;99.90;;;;;;4978217;28;20501;-93
2022/03/23 06:32:03;;;;;;;97.88;54.03;;;4.10;99.90;;;;;;4978137;28;20045;-93
2022/03/23 06:34:29;;;;;;;98.68;51.35;;;4.20;99.90;;;;;;4977504;28;20079;-92
2022/03/23 06:36:54;;;;;;;97.93;54.40;;;3.90;99.90;;;;;;4977470;28;20049;-92
2022/03/23 06:39:20;;;;;;;111.75;57.20;;;3.70;99.90;;;;;;4977633;28;20095;-91
2022/03/23 06:41:46;;;;;;;109.00;56.80;;;4.60;99.90;;;;;;4978520;28;20050;-91
2022/03/23 06:44:12;;;;;;;85.90;50.22;;;3.50;99.90;;;;;;4978098;28;20046;-92
2022/03/23 06:46:37;;;;;;;100.15;55.85;;;5.00;99.90;;;;;;4980470;28;20037;-92
2022/03/23 06:49:03;;;;;;;108.63;56.22;;;5.60;99.90;;;;;;4994611;28;20049;-92
2022/03/23 06:51:29;;;;;;;114.00;56.58;;;5.10;99.90;;;;;;4977507;28;20050;-91
2022/03/23 06:53:55;;;;;;;112.78;55.85;;;5.80;99.90;;;;;;4977810;28;20093;-92
2022/03/23 06:56:20;;;;;;;115.00;57.97;;;5.60;99.90;;;;;;4976161;28;20397;-92
2022/03/23 06:58:46;;;;;;;118.50;56.60;;;4.80;99.90;;;;;;4977902;28;20076;-92
2022/03/23 07:01:12;;;;;;;98.03;57.72;;;5.80;99.90;;;;;;4977083;28;20064;-93
2022/03/23 07:03:37;;;;;;;103.80;58.53;;;5.10;99.90;;;;;;4977464;28;20081;-94
2022/03/23 07:06:03;;;;;;;101.78;58.25;;;5.20;99.90;;;;;;4977588;28;20526;-93
2022/03/23 07:11:19;;;;;;;103.68;56.83;;;5.40;99.90;;;;;;5012141;28;20437;-93
2022/03/23 07:13:45;;;;;;;105.25;61.88;;;5.70;99.90;;;;;;4997644;28;20075;-96
2022/03/23 07:16:10;;;;;;;116.32;62.67;;;5.60;99.90;;;;;;4996376;28;20172;-95
2022/03/23 07:18:36;;;;;;;92.82;59.97;;;5.70;99.90;;;;;;4997065;28;20049;-93
2022/03/23 07:21:04;;;;;;;88.30;56.42;;;5.70;99.90;;;;;;4996435;28;20080;-93
2022/03/23 07:23:45;;;;;;;95.43;57.97;;;6.40;99.90;;;;;;4990348;28;20420;-93
2022/03/23 07:26:22;;;;;;;82.47;55.03;;;6.40;99.90;;;;;;4990822;28;20045;-93
2022/03/23 07:28:49;;;;;;;90.53;53.13;;;6.20;99.90;;;;;;4996265;28;20041;-94
2022/03/23 07:31:15;;;;;;;80.97;50.88;;;6.30;99.90;;;;;;4992513;28;20045;-94
2022/03/23 07:33:41;;;;;;;77.35;52.15;;;7.40;99.90;;;;;;4982981;28;20041;-94
2022/03/23 07:36:06;;;;;;;78.78;49.60;;;6.90;99.90;;;;;;4980596;28;20096;-93
2022/03/23 07:38:32;;;;;;;75.65;51.33;;;7.80;99.90;;;;;;4985452;28;20089;-92
2022/03/23 07:40:58;;;;;;;77.40;49.85;;;7.60;99.90;;;;;;4979771;28;20145;-91
2022/03/23 07:43:42;;;;;;;72.95;47.78;;;7.60;99.90;;;;;;4995094;28;20076;-91
2022/03/23 07:46:08;;;;;;;67.13;45.85;;;7.80;99.90;;;;;;4988847;28;20140;-92
2022/03/23 07:48:34;;;;;;;75.05;45.92;;;7.10;99.90;;;;;;4996100;28;20042;-93
2022/03/23 07:51:00;;;;;;;69.10;45.63;;;7.40;99.90;;;;;;4979864;28;20042;-92
2022/03/23 07:53:39;;;;;;;67.28;45.00;;;8.30;99.90;;;;;;4989478;28;20491;-92
2022/03/23 07:56:05;;;;;;;63.63;42.28;;;7.00;99.90;;;;;;4988005;28;20056;-92
2022/03/23 07:58:34;;;;;;;59.03;40.95;;;7.90;99.90;;;;;;4984854;28;20052;-93
2022/03/23 08:01:00;;;;;;;57.83;39.00;;;8.10;99.90;;;;;;4990915;28;20054;-92
2022/03/23 08:03:25;;;;;;;55.95;38.38;;;8.20;99.90;;;;;;4995603;28;20440;-91
2022/03/23 08:05:51;;;;;;;61.38;38.75;;;8.30;99.90;;;;;;4988294;28;20046;-90
2022/03/23 08:08:17;;;;;;;52.47;35.88;;;7.80;99.90;;;;;;4981887;28;20049;-91
2022/03/23 08:10:43;;;;;;;50.53;35.60;;;8.50;99.90;;;;;;4988425;28;20044;-90
2022/03/23 08:13:21;;;;;;;52.70;34.95;;;9.00;99.90;;;;;;4978767;28;20052;-92
2022/03/23 08:15:47;;;;;;;45.92;32.60;;;8.80;99.90;;;;;;4975532;28;20596;-92
2022/03/23 08:18:28;;;;;;;48.42;32.50;;;9.60;99.90;;;;;;4981560;28;20053;-93
2022/03/23 08:20:53;;;;;;;45.92;31.25;;;10.10;99.90;;;;;;4980277;28;20137;-92
2022/03/23 08:23:19;;;;;;;51.42;33.50;;;10.00;99.90;;;;;;4977444;28;20467;-92
2022/03/23 08:26:02;;;;;;;54.88;32.47;;;9.50;99.90;;;;;;4983798;28;20057;-92
2022/03/23 08:28:28;;;;;;;45.33;32.33;;;10.50;99.90;;;;;;4985117;28;20088;-92
2022/03/23 08:30:54;;;;;;;43.15;29.95;;;9.40;99.90;;;;;;4984974;28;20045;-92
2022/03/23 08:33:19;;;;;;;47.85;31.92;;;10.30;99.90;;;;;;4987762;28;20095;-83
2022/03/23 08:35:46;;;;;;;46.35;32.00;;;10.20;99.90;;;;;;4983744;28;20121;-91
2022/03/23 08:38:12;;;;;;;43.42;31.45;;;9.80;99.90;;;;;;5000171;28;20080;-91
2022/03/23 08:40:38;;;;;;;46.08;31.50;;;10.70;99.90;;;;;;4991511;28;20468;-91
2022/03/23 08:43:04;;;;;;;42.92;30.70;;;10.00;99.90;;;;;;4994459;28;20041;-91
2022/03/23 08:45:42;;;;;;;46.60;30.10;;;10.80;99.90;;;;;;4995154;28;20041;-90
2022/03/23 08:48:09;;;;;;;47.53;29.70;;;10.30;99.90;;;;;;4994685;28;20056;-89
2022/03/23 08:50:35;;;;;;;47.50;30.50;;;10.40;99.90;;;;;;4994391;28;20076;-89
2022/03/23 08:53:02;;;;;;;39.70;29.50;;;10.60;99.90;;;;;;4994207;28;20038;-90
2022/03/23 08:55:35;;;;;;;45.70;29.85;;;10.90;99.90;;;;;;4994878;28;20077;-89
2022/03/23 08:58:01;;;;;;;39.67;27.50;;;10.70;99.90;;;;;;4997167;28;20083;-90
2022/03/23 09:00:27;;;;;;;41.38;26.50;;;11.90;99.90;;;;;;4998727;28;20084;-89
2022/03/23 09:02:53;;;;;;;44.58;25.83;;;12.00;99.90;;;;;;4997575;28;20136;-88
2022/03/23 09:05:19;;;;;;;39.53;25.95;;;11.80;99.90;;;;;;4997885;28;20045;-90
2022/03/23 09:07:45;;;;;;;37.05;26.27;;;11.60;99.90;;;;;;4998915;28;20046;-89
2022/03/23 09:10:27;;;;;;;41.35;26.05;;;11.30;99.90;;;;;;4998159;28;20045;-89
2022/03/23 09:12:52;;;;;;;33.20;25.17;;;12.10;99.90;;;;;;4998217;28;20045;-90
2022/03/23 09:15:19;;;;;;;33.92;25.95;;;11.60;99.90;;;;;;4998441;28;20047;-90
2022/03/23 09:17:45;;;;;;;38.67;24.40;;;11.70;99.90;;;;;;4997516;28;20041;-90
2022/03/23 09:20:20;;;;;;;41.13;27.05;;;11.80;99.90;;;;;;4995594;28;20589;-90
2022/03/23 09:22:47;;;;;;;39.30;24.50;;;12.00;99.90;;;;;;4977065;28;20084;-90
2022/03/23 09:25:14;;;;;;;34.30;23.52;;;12.10;99.90;;;;;;4976795;28;20407;-90
2022/03/23 09:27:43;;;;;;;33.67;23.35;;;12.50;99.90;;;;;;4976170;28;20045;-91
2022/03/23 09:30:11;;;;;;;33.13;21.98;;;12.20;99.90;;;;;;4995710;28;20073;-91
2022/03/23 09:32:38;;;;;;;34.13;23.25;;;12.40;99.90;;;;;;4999159;28;20080;-92
2022/03/23 09:35:15;;;;;;;35.08;21.67;;;12.50;99.90;;;;;;4999493;28;20400;-92
2022/03/23 09:37:48;;;;;;;29.88;19.80;;;12.60;99.90;;;;;;4999170;28;20046;-91
2022/03/23 09:40:32;;;;;;;35.50;20.58;;;12.70;99.90;;;;;;4998954;28;20045;-92
2022/03/23 09:42:59;;;;;;;34.15;20.92;;;12.90;99.90;;;;;;5000459;28;20051;-89
2022/03/23 09:48:02;;;;;;;32.95;19.77;;;13.50;99.90;;;;;;5013500;28;20057;-89
2022/03/23 09:50:29;;;;;;;28.58;18.67;;;13.20;99.90;;;;;;5009372;28;20792;-89
2022/03/23 09:52:56;;;;;;;26.52;18.65;;;13.30;99.90;;;;;;5005751;28;20459;-90
2022/03/23 09:55:22;;;;;;;28.10;18.80;;;13.40;99.90;;;;;;5017819;28;20052;-89
2022/03/23 09:57:48;;;;;;;26.77;18.23;;;13.50;99.90;;;;;;5009604;28;20100;-88
2022/03/23 10:00:14;;;;;;;25.67;17.40;;;13.60;99.90;;;;;;4976202;28;20080;-88
2022/03/23 10:02:40;;;;;;;30.08;18.35;;;13.80;99.90;;;;;;4977272;28;20501;-88
2022/03/23 10:05:23;;;;;;;31.67;17.58;;;13.80;99.90;;;;;;4977716;28;20100;-88
2022/03/23 10:07:52;;;;;;;;;;;14.00;99.90;;;;;;4976688;28;20081;-89
2022/03/23 10:10:18;;;;;;;29.55;16.15;;;14.00;96.90;;;;;;4977908;28;19932;-89
2022/03/23 10:13:26;;;;;;;29.70;15.38;;;14.10;99.90;;;;;;4977329;28;20128;-89
2022/03/23 10:16:18;;;;;;;24.52;15.60;;;14.20;95.00;;;;;;4977638;28;20112;-89
2022/03/23 10:19:01;;;;;;;22.98;14.52;;;14.40;91.50;;;;;;4978231;28;20561;-89
2022/03/23 10:21:34;;;;;;;21.92;15.77;;;14.50;79.50;;;;;;4976915;28;20057;-88
2022/03/23 10:23:59;;;;;;;28.33;14.70;;;14.50;94.10;;;;;;4977459;28;20045;-88
2022/03/23 10:26:36;;;;;;;23.38;14.23;;;14.60;89.90;;;;;;4977030;28;20058;-88
2022/03/23 10:29:03;;;;;;;24.40;14.80;;;14.70;83.70;;;;;;4976820;28;20052;-88
2022/03/23 10:31:29;;;;;;;23.77;15.30;;;14.80;84.20;;;;;;4977542;28;20049;-89
2022/03/23 10:34:10;;;;;;;22.63;14.63;;;14.90;82.50;;;;;;4977312;28;20038;-88
2022/03/23 10:36:39;;;;;;;17.55;13.93;;;14.90;75.90;;;;;;4977490;28;20049;-89
2022/03/23 10:39:11;;;;;;;21.67;13.82;;;15.30;73.10;;;;;;4977422;28;20077;-89
2022/03/23 10:41:37;;;;;;;28.00;15.02;;;15.10;71.40;;;;;;4975957;28;20096;-88
2022/03/23 10:44:03;;;;;;;17.60;14.00;;;15.10;71.00;;;;;;4976762;28;20401;-89
2022/03/23 10:46:46;;;;;;;18.65;13.35;;;15.20;70.90;;;;;;4977040;28;20058;-90
2022/03/23 10:49:14;;;;;;;18.48;13.05;;;15.30;65.90;;;;;;4976208;28;20046;-90
2022/03/23 10:51:42;;;;;;;22.23;14.00;;;15.30;67.00;;;;;;4977712;28;20057;-89
2022/03/23 10:54:23;;;;;;;20.33;12.57;;;15.40;65.90;;;;;;4976848;28;20038;-89
2022/03/23 10:56:49;;;;;;;27.13;13.38;;;15.40;64.10;;;;;;4976724;28;20042;-88
2022/03/23 10:59:16;;;;;;;24.30;13.15;;;15.90;65.80;;;;;;4976937;28;20046;-90
2022/03/23 11:01:57;;;;;;;23.95;13.35;;;15.50;64.90;;;;;;4976388;28;20057;-87
2022/03/23 11:04:24;;;;;;;25.95;12.98;;;15.60;61.60;;;;;;4974686;28;20058;-87
2022/03/23 11:06:50;;;;;;;25.67;13.23;;;15.70;64.70;;;;;;4992737;28;20175;-88
2022/03/23 11:18:06;;;;;;;23.08;12.48;;;16.00;64.80;;;;;;4991098;28;20057;-87
2022/03/23 11:20:46;;;;;;;28.80;13.30;;;16.10;63.30;;;;;;4975780;28;20509;-88
2022/03/23 11:23:17;;;;;;;25.83;12.55;;;16.10;63.20;;;;;;4975256;28;20552;-87
2022/03/23 11:25:44;;;;;;;19.35;11.68;;;16.20;64.20;;;;;;4975662;28;20045;-88
2022/03/23 11:28:28;;;;;;;31.70;12.68;;;16.30;64.10;;;;;;4975364;28;20047;-88
2022/03/23 11:30:56;;;;;;;25.65;13.43;;;16.40;63.60;;;;;;4975333;28;20057;-88
2022/03/23 11:33:26;;;;;;;20.73;13.57;;;16.50;64.40;;;;;;4992689;28;20045;-88
2022/03/23 11:36:11;;;;;;;17.52;11.70;;;16.60;64.20;;;;;;4976717;28;20072;-86
2022/03/23 11:38:37;;;;;;;27.38;10.85;;;16.50;62.70;;;;;;4981224;28;20409;-84
2022/03/23 11:41:05;;;;;;;27.17;11.35;;;16.60;63.00;;;;;;4997367;28;20096;-84
2022/03/23 11:43:34;;;;;;;22.08;11.27;;;16.60;62.40;;;;;;4996281;28;20045;-86
2022/03/23 11:46:01;;;;;;;25.98;11.20;;;16.70;60.80;;;;;;4990870;28;20049;-84
2022/03/23 11:48:58;;;;;;;25.30;12.18;;;16.60;60.80;;;;;;4985059;28;20124;-84
2022/03/23 11:51:45;;;;;;;22.00;10.32;;;16.60;60.30;;;;;;4997658;28;20519;-84
2022/03/23 11:54:26;;;;;;;24.77;10.63;;;16.70;60.60;;;;;;5001649;28;20038;-83
2022/03/23 11:56:56;;;;;;;24.88;11.98;;;16.70;60.10;;;;;;4974647;28;20127;-81
2022/03/23 11:59:23;;;;;;;24.15;13.45;;;16.70;59.90;;;;;;5004445;28;20049;-80
2022/03/23 12:01:50;;;;;;;30.88;13.23;;;16.70;60.00;;;;;;5002373;28;20076;-79
2022/03/23 12:04:20;;;;;;;26.25;13.88;;;16.80;61.30;;;;;;4997387;28;20045;-80
2022/03/23 12:06:55;;;;;;;24.73;11.93;;;16.90;61.30;;;;;;5007467;28;20038;-80
2022/03/23 12:09:37;;;;;;;29.02;12.45;;;16.90;61.30;;;;;;4986199;28;20481;-81
2022/03/23 12:12:05;;;;;;;22.13;10.20;;;17.00;60.70;;;;;;5000829;28;20045;-80
2022/03/23 12:14:34;;;;;;;25.38;9.52;;;17.00;60.50;;;;;;4992961;28;20456;-80
2022/03/23 12:17:01;;;;;;;35.85;8.88;;;17.10;59.90;;;;;;4975944;28;20440;-80
2022/03/23 12:19:30;;;;;;;26.00;10.88;;;17.10;59.10;;;;;;4977142;28;20897;-80
2022/03/23 12:22:18;;;;;;;28.55;12.30;;;17.10;59.70;;;;;;4998599;28;20052;-80
2022/03/23 12:24:54;;;;;;;24.48;11.18;;;17.10;59.40;;;;;;5010142;28;20076;-80
2022/03/23 12:27:35;;;;;;;38.08;10.00;;;17.20;59.90;;;;;;4991124;28;20064;-80
2022/03/23 12:30:10;;;;;;;25.73;8.48;;;17.30;59.50;;;;;;4990611;28;20072;-80
2022/03/23 12:32:37;;;;;;;22.23;8.45;;;17.30;58.80;;;;;;4992923;28;20057;-80
2022/03/23 12:35:03;;;;;;;42.25;8.98;;;17.30;59.00;;;;;;4993420;28;20046;-81
2022/03/23 12:37:38;;;;;;;33.65;9.23;;;17.40;59.40;;;;;;4977696;28;20050;-81
2022/03/23 12:40:12;;;;;;;27.42;7.82;;;17.40;58.20;;;;;;5011622;28;20037;-81
2022/03/23 12:42:44;;;;;;;32.33;9.35;;;17.40;58.00;;;;;;4977102;28;20045;-82
2022/03/23 12:45:15;;;;;;;27.05;8.70;;;17.40;57.10;;;;;;5006457;28;20042;-84
2022/03/23 12:47:53;;;;;;;25.92;8.57;;;17.40;57.20;;;;;;4996440;28;20045;-88
2022/03/23 12:59:22;;;;;;;38.30;5.78;;;17.50;56.80;;;;;;5012696;28;20062;-89
2022/03/23 13:01:54;;;;;;;23.50;6.35;;;17.50;57.80;;;;;;4979917;28;20077;-89
2022/03/23 13:04:45;;;;;;;28.35;8.73;;;17.40;56.40;;;;;;4980134;28;20533;-90
2022/03/23 13:07:29;;;;;;;25.90;8.02;;;17.40;56.60;;;;;;4979670;28;20054;-90
2022/03/23 13:10:06;;;;;;;35.65;6.10;;;17.40;56.90;;;;;;4980126;28;20179;-91
2022/03/23 13:12:49;;;;;;;34.63;8.80;;;17.40;56.90;;;;;;4979545;28;20291;-91
2022/03/23 13:15:16;;;;;;;;;;;17.50;57.60;;;;;;4980201;28;20584;-90
2022/03/23 13:17:57;;;;;;;30.50;7.03;;;17.40;57.00;;;;;;4979170;28;19967;-90
2022/03/23 13:20:28;;;;;;;28.55;7.88;;;17.50;58.60;;;;;;4978995;28;20062;-90
2022/03/23 13:22:55;;;;;;;22.05;6.95;;;17.50;58.50;;;;;;4979289;28;20135;-90